Time;durP1;ratioP1;P1;durP2;ratioP2;P2;SDS_P1;SDS_P2;PMS_P1;PMS_P2;Temp;Humidity;BMP_temperature;BMP_pressure;BME280_temperature;BME280_humidity;BME280_pressure;Samples;Min_cycle;Max_cycle;Signal;HPM_P1;HPM_P2
2021/03/03 00:01:23;;;;;;;41.58;22.40;;;;;;;;;;5032429;28;20057;-67
2021/03/03 00:03:50;;;;;;;37.33;20.35;;;;;;;;;;5032962;28;20124;-67
2021/03/03 00:06:16;;;;;;;29.15;17.13;;;;;;;;;;5033215;28;20042;-67
2021/03/03 00:08:42;;;;;;;29.10;18.58;;;;;;;;;;5011371;28;20343;-67
2021/03/03 00:11:09;;;;;;;26.77;17.42;;;;;;;;;;5032772;28;20060;-67
2021/03/03 00:13:35;;;;;;;31.48;18.63;;;;;;;;;;5033055;28;20045;-67
2021/03/03 00:16:01;;;;;;;29.08;18.48;;;;;;;;;;5014216;28;20048;-67
2021/03/03 00:18:27;;;;;;;30.65;19.15;;;;;;;;;;5033327;28;20121;-67
2021/03/03 00:20:53;;;;;;;33.83;19.58;;;;;;;;;;5031810;28;20142;-67
2021/03/03 00:23:20;;;;;;;30.00;18.35;;;;;;;;;;5031402;28;20152;-67
2021/03/03 00:25:46;;;;;;;31.00;19.42;;;;;;;;;;5032700;28;20052;-67
2021/03/03 00:28:12;;;;;;;34.83;20.42;;;;;;;;;;5014986;28;20037;-67
2021/03/03 00:30:39;;;;;;;30.45;19.17;;;;;;;;;;5032215;28;20496;-67
2021/03/03 00:33:05;;;;;;;32.03;17.48;;;;;;;;;;5014416;28;20041;-67
2021/03/03 00:35:31;;;;;;;31.45;18.73;;;;;;;;;;5032071;28;20056;-67
2021/03/03 00:37:58;;;;;;;32.90;20.27;;;;;;;;;;5032233;28;20121;-67
2021/03/03 00:40:24;;;;;;;34.45;20.00;;;;;;;;;;5032516;28;20049;-67
2021/03/03 00:42:50;;;;;;;38.67;22.98;;;;;;;;;;5023517;28;20052;-67
2021/03/03 00:45:17;;;;;;;38.60;21.90;;;;;;;;;;5034179;28;20045;-67
2021/03/03 00:47:43;;;;;;;36.13;21.65;;;;;;;;;;5040454;28;20112;-67
2021/03/03 00:50:10;;;;;;;31.45;19.42;;;;;;;;;;5038722;28;20068;-67
2021/03/03 00:52:36;;;;;;;41.33;22.00;;;;;;;;;;5042241;28;20038;-67
2021/03/03 00:55:03;;;;;;;45.15;22.35;;;;;;;;;;5041928;28;20128;-67
2021/03/03 00:57:29;;;;;;;34.58;21.30;;;;;;;;;;5028688;28;20076;-67
2021/03/03 00:59:55;;;;;;;32.88;19.88;;;;;;;;;;5048043;28;20040;-67
2021/03/03 01:02:22;;;;;;;36.75;21.85;;;;;;;;;;5041378;28;20049;-67
2021/03/03 01:04:48;;;;;;;35.90;20.77;;;;;;;;;;5039760;28;20485;-67
2021/03/03 01:07:14;;;;;;;41.28;22.90;;;;;;;;;;5032267;28;20493;-67
2021/03/03 01:09:40;;;;;;;38.35;23.10;;;;;;;;;;5035964;28;20042;-67
2021/03/03 01:12:07;;;;;;;34.15;20.10;;;;;;;;;;5035047;28;20487;-67
2021/03/03 01:14:33;;;;;;;39.22;21.92;;;;;;;;;;5024333;28;20261;-67
2021/03/03 01:16:59;;;;;;;34.67;22.02;;;;;;;;;;5041065;28;20045;-67
2021/03/03 01:19:26;;;;;;;38.88;21.80;;;;;;;;;;5043680;28;20052;-67
2021/03/03 01:21:52;;;;;;;38.42;22.63;;;;;;;;;;5029596;28;20049;-66
2021/03/03 01:24:18;;;;;;;43.65;24.40;;;;;;;;;;5038534;28;20037;-67
2021/03/03 01:26:44;;;;;;;43.15;24.67;;;;;;;;;;5041554;28;20052;-67
2021/03/03 01:29:11;;;;;;;40.65;21.77;;;;;;;;;;5033293;28;20033;-67
2021/03/03 01:31:37;;;;;;;42.38;22.98;;;;;;;;;;5031729;28;20183;-67
2021/03/03 01:34:03;;;;;;;38.47;22.52;;;;;;;;;;5024280;28;20050;-67
2021/03/03 01:36:30;;;;;;;39.90;22.23;;;;;;;;;;5012302;28;20120;-67
2021/03/03 01:38:56;;;;;;;33.78;19.85;;;;;;;;;;5010941;28;20125;-67
2021/03/03 01:41:23;;;;;;;35.97;21.95;;;;;;;;;;5014278;28;20092;-67
2021/03/03 01:43:49;;;;;;;36.67;17.65;;;;;;;;;;5008301;28;20129;-67
2021/03/03 01:46:15;;;;;;;45.72;14.02;;;;;;;;;;5010627;28;20052;-67
2021/03/03 01:48:41;;;;;;;27.65;15.18;;;;;;;;;;5011776;28;20093;-67
2021/03/03 01:51:08;;;;;;;36.38;19.90;;;;;;;;;;5014553;28;20088;-67
2021/03/03 01:53:34;;;;;;;36.42;21.08;;;;;;;;;;5010415;28;20038;-67
2021/03/03 01:56:01;;;;;;;30.08;18.73;;;;;;;;;;5009509;28;20042;-66
2021/03/03 01:58:28;;;;;;;28.92;17.35;;;;;;;;;;5011737;28;20125;-67
2021/03/03 02:00:54;;;;;;;21.90;13.45;;;;;;;;;;5014924;28;20046;-67
2021/03/03 02:03:21;;;;;;;30.60;17.63;;;;;;;;;;5010869;28;20046;-67
2021/03/03 02:05:50;;;;;;;30.10;17.90;;;;;;;;;;5008743;28;20056;-67
2021/03/03 02:08:20;;;;;;;36.97;22.33;;;;;;;;;;5013874;28;20552;-67
2021/03/03 02:10:51;;;;;;;30.67;19.00;;;;;;;;;;5013693;28;20038;-67
2021/03/03 02:13:22;;;;;;;43.28;22.00;;;;;;;;;;5011078;28;20121;-67
2021/03/03 02:15:49;;;;;;;34.65;20.40;;;;;;;;;;5013817;28;20048;-67
2021/03/03 02:18:17;;;;;;;43.60;23.73;;;;;;;;;;5012434;28;20086;-67
2021/03/03 02:20:47;;;;;;;47.15;25.42;;;;;;;;;;5010917;28;20049;-67
2021/03/03 02:23:16;;;;;;;37.70;22.63;;;;;;;;;;5011110;28;20038;-67
2021/03/03 02:25:44;;;;;;;39.92;19.05;;;;;;;;;;5010935;28;20052;-67
2021/03/03 02:28:11;;;;;;;95.53;19.65;;;;;;;;;;5013727;28;20084;-67
2021/03/03 02:30:39;;;;;;;96.15;16.38;;;;;;;;;;5010574;28;20138;-67
2021/03/03 02:33:06;;;;;;;34.83;13.35;;;;;;;;;;5013104;28;20124;-67
2021/03/03 02:35:33;;;;;;;252.35;20.33;;;;;;;;;;5033835;28;20170;-67
2021/03/03 02:38:00;;;;;;;109.88;16.42;;;;;;;;;;5039958;28;20060;-67
2021/03/03 02:40:28;;;;;;;128.45;16.45;;;;;;;;;;5031155;28;20128;-67
2021/03/03 02:42:55;;;;;;;275.27;22.80;;;;;;;;;;5010891;28;20037;-67
2021/03/03 02:45:21;;;;;;;265.98;21.73;;;;;;;;;;5035993;28;20061;-67
2021/03/03 02:47:48;;;;;;;215.82;16.75;;;;;;;;;;5030835;28;20049;-67
2021/03/03 02:50:14;;;;;;;61.03;14.48;;;;;;;;;;5029757;28;20042;-67
2021/03/03 02:52:47;;;;;;;114.40;13.23;;;;;;;;;;5045503;28;20048;-67
2021/03/03 02:55:13;;;;;;;168.45;16.33;;;;;;;;;;5032507;28;20532;-67
2021/03/03 02:57:40;;;;;;;81.60;13.00;;;;;;;;;;5028682;28;20049;-67
2021/03/03 03:00:06;;;;;;;128.38;12.40;;;;;;;;;;5037243;28;20037;-66
2021/03/03 03:02:34;;;;;;;125.93;9.80;;;;;;;;;;5032986;28;20079;-67
2021/03/03 03:05:03;;;;;;;38.60;8.45;;;;;;;;;;5044431;28;20074;-67
2021/03/03 03:07:32;;;;;;;24.65;13.80;;;;;;;;;;5024580;28;20503;-67
2021/03/03 03:10:01;;;;;;;42.25;13.13;;;;;;;;;;5035120;28;20519;-67
2021/03/03 03:12:28;;;;;;;75.97;15.80;;;;;;;;;;5033788;28;20045;-67
2021/03/03 03:14:55;;;;;;;107.88;14.05;;;;;;;;;;5032835;28;20042;-67
2021/03/03 03:17:22;;;;;;;57.17;10.35;;;;;;;;;;5034245;28;20069;-67
2021/03/03 03:19:50;;;;;;;29.42;8.63;;;;;;;;;;5033435;28;20502;-67
2021/03/03 03:22:18;;;;;;;23.45;10.45;;;;;;;;;;5040210;28;20255;-66
2021/03/03 03:24:44;;;;;;;35.67;17.50;;;;;;;;;;5036913;28;20129;-66
2021/03/03 03:27:11;;;;;;;33.75;17.02;;;;;;;;;;5049857;28;20037;-67
2021/03/03 03:29:39;;;;;;;30.02;16.55;;;;;;;;;;5045126;28;20033;-67
2021/03/03 03:32:06;;;;;;;31.80;17.63;;;;;;;;;;5034071;28;20045;-67
2021/03/03 03:34:34;;;;;;;38.85;19.38;;;;;;;;;;5032626;28;20561;-67
2021/03/03 03:37:01;;;;;;;34.90;18.45;;;;;;;;;;5029522;28;20080;-67
2021/03/03 03:39:28;;;;;;;41.28;24.23;;;;;;;;;;5032626;28;20119;-67
2021/03/03 03:41:55;;;;;;;36.30;20.90;;;;;;;;;;5033761;28;20084;-67
2021/03/03 03:44:21;;;;;;;46.88;18.58;;;;;;;;;;5033785;28;20045;-67
2021/03/03 03:46:48;;;;;;;90.15;15.27;;;;;;;;;;5032669;28;20046;-67
2021/03/03 03:49:15;;;;;;;34.45;18.27;;;;;;;;;;5029694;28;20072;-66
2021/03/03 03:51:41;;;;;;;31.60;15.63;;;;;;;;;;5033654;28;20436;-67
2021/03/03 03:54:08;;;;;;;32.78;15.35;;;;;;;;;;5033242;28;20068;-67
2021/03/03 03:56:35;;;;;;;35.25;18.48;;;;;;;;;;5028114;28;20532;-67
2021/03/03 03:59:01;;;;;;;29.40;18.08;;;;;;;;;;5033343;28;20403;-67
2021/03/03 04:01:27;;;;;;;34.50;19.50;;;;;;;;;;5032315;28;20045;-67
2021/03/03 04:03:54;;;;;;;37.85;20.17;;;;;;;;;;5033234;28;20045;-67
2021/03/03 04:06:20;;;;;;;34.30;17.52;;;;;;;;;;5033347;28;20128;-66
2021/03/03 04:08:46;;;;;;;35.33;19.33;;;;;;;;;;5032637;28;20034;-66
2021/03/03 04:11:12;;;;;;;81.07;21.02;;;;;;;;;;5033264;28;20052;-67
2021/03/03 04:13:38;;;;;;;84.82;21.17;;;;;;;;;;5029218;28;20460;-67
2021/03/03 04:16:05;;;;;;;486.52;35.03;;;;;;;;;;5031350;28;20049;-67
2021/03/03 04:18:31;;;;;;;236.40;19.77;;;;;;;;;;5033214;28;20065;-67
2021/03/03 04:20:57;;;;;;;241.00;18.85;;;;;;;;;;5028998;28;20071;-67
2021/03/03 04:23:24;;;;;;;57.83;17.25;;;;;;;;;;5028016;28;20065;-67
2021/03/03 04:25:50;;;;;;;30.27;16.00;;;;;;;;;;5032988;28;20136;-67
2021/03/03 04:28:16;;;;;;;29.70;17.83;;;;;;;;;;5032760;28;20095;-67
2021/03/03 04:30:42;;;;;;;27.77;18.02;;;;;;;;;;5031802;28;20120;-67
2021/03/03 04:33:09;;;;;;;42.33;15.27;;;;;;;;;;5032633;28;20044;-67
2021/03/03 04:35:36;;;;;;;33.45;16.58;;;;;;;;;;5024639;28;20136;-67
2021/03/03 04:38:02;;;;;;;33.88;18.67;;;;;;;;;;5031124;28;20041;-67
2021/03/03 04:40:28;;;;;;;36.80;20.40;;;;;;;;;;5032378;28;20041;-67
2021/03/03 04:42:55;;;;;;;29.05;17.17;;;;;;;;;;5031904;28;20051;-67
2021/03/03 04:45:21;;;;;;;31.15;18.92;;;;;;;;;;5032418;28;20065;-67
2021/03/03 04:47:47;;;;;;;45.33;14.73;;;;;;;;;;5028051;28;20041;-66
2021/03/03 04:50:13;;;;;;;109.38;11.30;;;;;;;;;;5031582;28;20080;-67
2021/03/03 04:52:40;;;;;;;276.55;17.27;;;;;;;;;;5032252;28;20045;-67
2021/03/03 04:55:06;;;;;;;270.50;17.05;;;;;;;;;;5032444;28;20451;-67
2021/03/03 04:57:33;;;;;;;301.73;17.58;;;;;;;;;;5025826;28;20053;-67
2021/03/03 05:00:00;;;;;;;238.40;16.20;;;;;;;;;;5032161;28;20041;-67
2021/03/03 05:02:26;;;;;;;197.27;17.25;;;;;;;;;;5031830;28;20070;-67
2021/03/03 05:04:52;;;;;;;309.50;20.85;;;;;;;;;;5031120;28;20436;-67
2021/03/03 05:07:18;;;;;;;148.77;16.73;;;;;;;;;;5032121;28;20111;-67
2021/03/03 05:09:45;;;;;;;209.60;17.30;;;;;;;;;;5031948;28;20065;-67
2021/03/03 05:12:11;;;;;;;195.10;18.08;;;;;;;;;;5031174;28;20058;-67
2021/03/03 05:14:38;;;;;;;201.48;23.08;;;;;;;;;;5031759;28;20164;-67
2021/03/03 05:17:05;;;;;;;267.27;18.35;;;;;;;;;;5031846;28;20060;-67
2021/03/03 05:19:31;;;;;;;231.90;19.58;;;;;;;;;;5026759;28;20092;-67
2021/03/03 05:21:57;;;;;;;370.77;22.08;;;;;;;;;;5031268;28;20054;-67
2021/03/03 05:24:24;;;;;;;362.60;23.23;;;;;;;;;;5031625;28;20060;-67
2021/03/03 05:26:50;;;;;;;299.65;18.20;;;;;;;;;;5031099;28;20139;-67
2021/03/03 05:29:16;;;;;;;260.92;16.23;;;;;;;;;;5031303;28;20049;-67
2021/03/03 05:31:42;;;;;;;292.67;16.83;;;;;;;;;;5031585;28;20132;-67
2021/03/03 05:34:09;;;;;;;280.17;13.77;;;;;;;;;;5030300;28;20520;-67
2021/03/03 05:36:35;;;;;;;203.13;13.15;;;;;;;;;;5027276;28;20128;-67
2021/03/03 05:39:03;;;;;;;144.25;11.93;;;;;;;;;;5030707;28;20053;-67
2021/03/03 05:41:30;;;;;;;290.65;17.35;;;;;;;;;;5031326;28;20430;-66
2021/03/03 05:43:57;;;;;;;234.50;16.17;;;;;;;;;;5031044;28;20392;-67
2021/03/03 05:46:24;;;;;;;291.45;17.70;;;;;;;;;;5030965;28;20084;-67
2021/03/03 05:48:52;;;;;;;140.65;15.15;;;;;;;;;;5031421;28;20136;-67
2021/03/03 05:51:19;;;;;;;145.95;18.48;;;;;;;;;;5029950;28;20346;-67
2021/03/03 05:53:45;;;;;;;168.20;19.65;;;;;;;;;;5028894;28;20041;-67
2021/03/03 05:56:12;;;;;;;235.98;18.23;;;;;;;;;;5023529;28;20503;-67
2021/03/03 05:58:39;;;;;;;180.70;15.80;;;;;;;;;;5011238;28;20048;-67
2021/03/03 06:01:06;;;;;;;406.17;24.33;;;;;;;;;;5029384;28;20076;-67
2021/03/03 06:03:33;;;;;;;315.98;18.38;;;;;;;;;;5026610;28;20052;-67
2021/03/03 06:05:59;;;;;;;370.63;17.90;;;;;;;;;;5027960;28;20302;-67
2021/03/03 06:08:27;;;;;;;312.75;15.90;;;;;;;;;;5024398;28;20066;-66
2021/03/03 06:10:53;;;;;;;210.80;12.82;;;;;;;;;;5024469;28;20350;-66
2021/03/03 06:13:20;;;;;;;152.00;10.90;;;;;;;;;;5011582;28;20080;-66
2021/03/03 06:15:46;;;;;;;141.77;11.75;;;;;;;;;;5019384;28;20041;-62
2021/03/03 06:18:14;;;;;;;262.10;15.98;;;;;;;;;;5016365;28;20049;-62
2021/03/03 06:20:40;;;;;;;361.48;24.83;;;;;;;;;;5018954;28;20045;-62
2021/03/03 06:23:21;;;;;;;245.02;20.65;;;;;;;;;;5022713;28;20041;-62
2021/03/03 06:25:48;;;;;;;323.63;22.88;;;;;;;;;;5014530;28;20500;-62
2021/03/03 06:28:34;;;;;;;377.17;24.75;;;;;;;;;;5027215;28;20412;-62
2021/03/03 06:31:01;;;;;;;352.55;23.88;;;;;;;;;;5020896;28;20061;-62
2021/03/03 06:33:28;;;;;;;429.83;21.42;;;;;;;;;;5017087;28;20053;-62
2021/03/03 06:35:54;;;;;;;273.25;19.38;;;;;;;;;;5020118;28;20736;-62
2021/03/03 06:38:26;;;;;;;440.27;28.42;;;;;;;;;;5028974;28;20061;-62
2021/03/03 06:40:54;;;;;;;438.42;25.45;;;;;;;;;;5034714;28;20096;-61
2021/03/03 06:43:22;;;;;;;391.08;20.75;;;;;;;;;;5025620;28;20144;-62
2021/03/03 06:45:49;;;;;;;418.30;24.05;;;;;;;;;;5033094;28;20041;-62
2021/03/03 06:48:33;;;;;;;483.40;26.10;;;;;;;;;;5031261;28;20096;-62
2021/03/03 06:51:00;;;;;;;;;;;;;;;;;;5036755;28;20112;-62
2021/03/03 06:53:32;;;;;;;296.77;14.82;;;;;;;;;;5034532;28;20009;-62
2021/03/03 06:55:58;;;;;;;289.08;14.40;;;;;;;;;;5030812;28;20163;-62
2021/03/03 06:58:24;;;;;;;254.73;15.82;;;;;;;;;;5039538;28;20511;-62
2021/03/03 07:00:53;;;;;;;265.15;16.15;;;;;;;;;;5037147;28;20588;-61
2021/03/03 07:03:24;;;;;;;213.95;15.77;;;;;;;;;;5034672;28;20342;-61
2021/03/03 07:05:50;;;;;;;217.52;21.40;;;;;;;;;;5023243;28;20399;-61
2021/03/03 07:08:17;;;;;;;267.80;23.98;;;;;;;;;;5034653;28;20045;-62
2021/03/03 07:10:43;;;;;;;309.40;29.10;;;;;;;;;;5034093;28;20048;-62
2021/03/03 07:13:10;;;;;;;269.45;25.77;;;;;;;;;;5034953;28;20088;-63
2021/03/03 07:15:36;;;;;;;143.68;25.25;;;;;;;;;;5037102;28;20451;-62
2021/03/03 07:18:02;;;;;;;212.48;22.67;;;;;;;;;;5033836;28;20048;-62
2021/03/03 07:20:29;;;;;;;146.32;20.48;;;;;;;;;;5031322;28;20107;-62
2021/03/03 07:22:57;;;;;;;165.95;21.00;;;;;;;;;;5020173;28;20081;-79
2021/03/03 07:25:23;;;;;;;148.98;19.40;;;;;;;;;;5028361;28;20489;-62
2021/03/03 07:27:50;;;;;;;203.23;20.33;;;;;;;;;;5031079;28;20055;-62
2021/03/03 07:30:17;;;;;;;207.00;22.15;;;;;;;;;;5046691;28;20523;-62
2021/03/03 07:32:43;;;;;;;216.77;22.98;;;;;;;;;;5031197;28;20103;-61
2021/03/03 07:35:11;;;;;;;248.43;24.30;;;;;;;;;;5029565;28;20074;-62
2021/03/03 07:37:39;;;;;;;219.52;23.88;;;;;;;;;;5034224;28;20057;-62
2021/03/03 07:40:10;;;;;;;156.73;23.17;;;;;;;;;;5035119;28;20137;-61
2021/03/03 07:42:37;;;;;;;141.40;21.15;;;;;;;;;;5039751;28;20044;-62
2021/03/03 07:45:06;;;;;;;133.45;19.95;;;;;;;;;;5024552;28;20477;-62
2021/03/03 07:47:35;;;;;;;120.57;22.40;;;;;;;;;;5033380;28;20132;-64
2021/03/03 07:50:06;;;;;;;120.50;20.85;;;;;;;;;;5033821;28;20042;-63
2021/03/03 07:52:34;;;;;;;117.65;20.95;;;;;;;;;;5031928;28;20143;-62
2021/03/03 07:55:01;;;;;;;123.50;26.15;;;;;;;;;;5032050;28;20440;-64
2021/03/03 07:57:29;;;;;;;105.78;23.20;;;;;;;;;;5031335;28;20056;-62
2021/03/03 07:59:56;;;;;;;139.00;22.30;;;;;;;;;;5018025;28;20149;-62
2021/03/03 08:02:23;;;;;;;92.00;30.13;;;;;;;;;;5031974;28;20046;-62
2021/03/03 08:05:00;;;;;;;319.40;65.13;;;;;;;;;;5031320;28;20120;-62
2021/03/03 08:07:27;;;;;;;340.08;73.40;;;;;;;;;;5026246;28;20069;-62
2021/03/03 08:10:12;;;;;;;273.90;56.50;;;;;;;;;;5030387;28;20142;-62
2021/03/03 08:12:57;;;;;;;227.60;42.63;;;;;;;;;;5025470;28;20054;-61
2021/03/03 08:15:31;;;;;;;201.70;41.17;;;;;;;;;;5030666;28;20155;-62
2021/03/03 08:17:58;;;;;;;;;;;;;;;;;;5015393;28;20049;-61
2021/03/03 08:20:30;;;;;;;180.45;35.05;;;;;;;;;;5024864;28;20261;-62
2021/03/03 08:22:58;;;;;;;206.82;35.63;;;;;;;;;;5023575;28;20056;-62
2021/03/03 08:25:45;;;;;;;221.05;36.90;;;;;;;;;;5008102;28;20052;-62
2021/03/03 08:28:26;;;;;;;197.40;37.10;;;;;;;;;;5025438;28;20485;-62
2021/03/03 08:31:24;;;;;;;115.82;27.58;;;;;;;;;;5027083;28;20048;-62
2021/03/03 08:33:52;;;;;;;191.02;28.90;;;;;;;;;;5027066;28;20114;-61
2021/03/03 08:36:39;;;;;;;127.15;25.52;;;;;;;;;;5026637;28;20508;-62
2021/03/03 08:39:06;;;;;;;105.10;23.65;;;;;;;;;;5025431;28;20144;-62
2021/03/03 08:41:34;;;;;;;150.27;29.88;;;;;;;;;;5025283;28;20045;-61
2021/03/03 12:02:20;;;;;;;60.50;35.50;;;;;;;;;;4915401;29;20071;-66
2021/03/03 12:04:48;;;;;;;74.18;37.25;;;;;;;;;;4919370;29;20040;-61
2021/03/03 12:07:14;;;;;;;76.20;38.95;;;;;;;;;;4916452;29;20052;-61
2021/03/03 12:09:40;;;;;;;71.07;36.38;;;;;;;;;;4917621;29;20467;-61
2021/03/03 12:12:08;;;;;;;63.80;36.60;;;;;;;;;;4912477;29;20057;-60
2021/03/03 12:14:34;;;;;;;84.63;40.78;;;;;;;;;;4911195;29;20043;-61
2021/03/03 12:17:01;;;;;;;81.32;39.13;;;;;;;;;;4916964;29;20040;-60
2021/03/03 12:19:27;;;;;;;73.50;39.45;;;;;;;;;;4912811;29;20127;-61
2021/03/03 12:21:54;;;;;;;72.60;39.50;;;;;;;;;;4917437;29;20125;-60
2021/03/03 12:24:22;;;;;;;73.82;41.25;;;;;;;;;;4916859;29;20068;-61
2021/03/03 12:26:49;;;;;;;77.82;39.67;;;;;;;;;;4920458;29;20052;-61
2021/03/03 12:29:15;;;;;;;77.82;41.92;;;;;;;;;;4917593;29;20052;-60
2021/03/03 12:31:42;;;;;;;92.55;44.97;;;;;;;;;;4935807;29;20078;-61
2021/03/03 12:34:08;;;;;;;72.80;40.45;;;;;;;;;;4926898;29;20048;-60
2021/03/03 12:36:34;;;;;;;88.43;40.90;;;;;;;;;;4929058;29;20134;-61
2021/03/03 12:39:01;;;;;;;78.60;39.47;;;;;;;;;;4918406;29;20071;-60
2021/03/03 12:41:27;;;;;;;87.00;42.22;;;;;;;;;;4916469;29;20044;-60
2021/03/03 12:43:53;;;;;;;74.75;38.92;;;;;;;;;;4922158;29;20129;-61
2021/03/03 12:46:20;;;;;;;81.38;41.97;;;;;;;;;;4932805;29;20384;-61
2021/03/03 12:48:46;;;;;;;69.20;36.63;;;;;;;;;;4935698;29;20435;-61
2021/03/03 12:51:12;;;;;;;71.22;37.05;;;;;;;;;;4935302;29;20048;-61
2021/03/03 12:53:39;;;;;;;71.47;37.00;;;;;;;;;;4936154;29;20051;-61
2021/03/03 12:56:05;;;;;;;60.85;33.05;;;;;;;;;;4936349;29;20059;-61
2021/03/03 12:58:32;;;;;;;59.42;33.67;;;;;;;;;;4929280;29;20059;-61
2021/03/03 13:00:59;;;;;;;52.75;30.33;;;;;;;;;;4931848;29;20075;-61
2021/03/03 13:03:25;;;;;;;58.35;30.25;;;;;;;;;;4925049;29;20519;-77
2021/03/03 13:05:52;;;;;;;59.95;31.75;;;;;;;;;;4930532;29;20048;-61
2021/03/03 13:08:19;;;;;;;58.55;33.17;;;;;;;;;;4916944;29;20407;-66
2021/03/03 13:10:45;;;;;;;59.03;33.15;;;;;;;;;;4917295;29;20074;-61
2021/03/03 13:13:11;;;;;;;68.07;33.42;;;;;;;;;;4916056;29;20048;-60
2021/03/03 13:15:37;;;;;;;69.45;35.08;;;;;;;;;;4915640;29;20047;-61
2021/03/03 13:18:04;;;;;;;81.30;38.53;;;;;;;;;;4916558;29;20067;-61
2021/03/03 13:20:31;;;;;;;75.97;37.88;;;;;;;;;;4915980;29;20526;-61
2021/03/03 13:22:58;;;;;;;69.18;33.70;;;;;;;;;;4916595;29;20752;-61
2021/03/03 13:25:25;;;;;;;71.93;35.97;;;;;;;;;;4916135;29;20044;-61
2021/03/03 13:27:51;;;;;;;76.20;37.08;;;;;;;;;;4915385;29;20048;-61
2021/03/03 13:30:19;;;;;;;69.00;33.92;;;;;;;;;;4916487;29;20063;-62
2021/03/03 13:32:45;;;;;;;71.18;36.67;;;;;;;;;;4915491;29;20400;-61
2021/03/03 13:35:12;;;;;;;73.10;34.63;;;;;;;;;;4916205;29;20495;-66
2021/03/03 13:37:39;;;;;;;79.88;35.22;;;;;;;;;;4915906;29;20200;-65
2021/03/03 13:40:07;;;;;;;74.75;35.42;;;;;;;;;;4914925;29;20440;-65
2021/03/03 13:42:33;;;;;;;75.45;34.72;;;;;;;;;;4915871;29;20048;-65
2021/03/03 13:44:59;;;;;;;72.20;32.65;;;;;;;;;;4916242;29;20050;-66
2021/03/03 13:47:26;;;;;;;67.72;32.95;;;;;;;;;;4915004;29;20183;-66
2021/03/03 13:49:52;;;;;;;66.95;31.77;;;;;;;;;;4914273;29;20046;-66
2021/03/03 13:52:19;;;;;;;61.80;29.42;;;;;;;;;;4911659;29;20048;-80
2021/03/03 13:54:46;;;;;;;61.33;29.98;;;;;;;;;;4911247;29;20444;-67
2021/03/03 13:57:12;;;;;;;72.55;33.35;;;;;;;;;;4914647;29;20047;-67
2021/03/03 13:59:38;;;;;;;69.00;31.77;;;;;;;;;;4916136;29;20166;-67
2021/03/03 14:02:05;;;;;;;72.22;31.45;;;;;;;;;;4915040;29;20052;-72
2021/03/03 14:04:32;;;;;;;70.03;30.90;;;;;;;;;;4916085;29;20040;-68
2021/03/03 14:06:59;;;;;;;65.80;29.92;;;;;;;;;;4914760;29;20157;-67
2021/03/03 14:09:25;;;;;;;73.93;32.75;;;;;;;;;;4908181;29;20040;-67
2021/03/03 14:11:51;;;;;;;63.10;29.15;;;;;;;;;;4914077;29;20059;-67
2021/03/03 14:14:18;;;;;;;56.85;27.83;;;;;;;;;;4916097;29;20050;-70
2021/03/03 14:16:44;;;;;;;63.97;30.02;;;;;;;;;;4914665;29;20036;-68
2021/03/03 14:19:10;;;;;;;56.53;27.50;;;;;;;;;;4914710;29;20044;-68
2021/03/03 14:21:37;;;;;;;67.80;29.25;;;;;;;;;;4912752;29;20040;-68
2021/03/03 14:24:03;;;;;;;55.50;27.23;;;;;;;;;;4913099;29;20052;-69
2021/03/03 14:26:32;;;;;;;60.85;27.20;;;;;;;;;;4909742;29;20052;-69
2021/03/03 14:28:59;;;;;;;63.05;28.30;;;;;;;;;;4908104;29;20111;-69
2021/03/03 14:31:25;;;;;;;56.92;27.27;;;;;;;;;;4910956;29;20119;-68
2021/03/03 14:33:52;;;;;;;60.35;29.35;;;;;;;;;;4914109;29;20071;-68
2021/03/03 14:36:18;;;;;;;58.80;28.20;;;;;;;;;;4912175;29;20174;-69
2021/03/03 14:38:44;;;;;;;57.15;28.25;;;;;;;;;;4914310;29;20484;-69
2021/03/03 14:41:11;;;;;;;56.15;26.75;;;;;;;;;;4912677;29;20123;-68
2021/03/03 14:43:37;;;;;;;58.50;28.20;;;;;;;;;;4908961;29;20423;-69
2021/03/03 14:46:03;;;;;;;65.80;29.00;;;;;;;;;;4915209;29;20036;-68
2021/03/03 14:48:30;;;;;;;60.75;29.98;;;;;;;;;;4914712;29;20385;-68
2021/03/03 14:50:56;;;;;;;64.03;29.65;;;;;;;;;;4912704;29;20071;-68
2021/03/03 14:53:22;;;;;;;64.88;30.38;;;;;;;;;;4914638;29;20036;-68
2021/03/03 14:55:49;;;;;;;57.25;28.45;;;;;;;;;;4914714;29;20055;-68
2021/03/03 14:58:15;;;;;;;62.60;30.13;;;;;;;;;;4914061;29;20044;-67
2021/03/03 15:00:42;;;;;;;55.55;29.33;;;;;;;;;;4916356;29;20044;-67
2021/03/03 15:03:08;;;;;;;51.53;26.02;;;;;;;;;;4914152;29;20141;-74
2021/03/03 15:05:34;;;;;;;54.72;28.88;;;;;;;;;;4915797;29;20048;-74
2021/03/03 15:08:01;;;;;;;61.50;28.95;;;;;;;;;;4917584;29;20138;-74
2021/03/03 15:10:28;;;;;;;61.55;28.02;;;;;;;;;;4918608;29;20487;-74
2021/03/03 15:12:54;;;;;;;58.30;29.10;;;;;;;;;;4917911;29;20048;-74
2021/03/03 15:15:21;;;;;;;56.83;27.10;;;;;;;;;;4918562;29;20132;-74
2021/03/03 15:17:50;;;;;;;56.50;28.10;;;;;;;;;;4918572;29;20167;-77
2021/03/03 15:20:16;;;;;;;63.17;28.58;;;;;;;;;;4918001;29;20056;-76
2021/03/03 15:22:42;;;;;;;59.35;28.63;;;;;;;;;;4918312;29;20107;-76
2021/03/03 15:25:09;;;;;;;62.72;30.48;;;;;;;;;;4917469;29;20499;-76
2021/03/03 15:27:35;;;;;;;59.85;28.55;;;;;;;;;;4918457;29;20036;-76
2021/03/03 15:30:03;;;;;;;63.10;30.52;;;;;;;;;;4918108;29;20103;-75
2021/03/03 15:32:29;;;;;;;68.78;29.00;;;;;;;;;;4917462;29;20048;-76
2021/03/03 15:34:56;;;;;;;61.78;29.67;;;;;;;;;;4916952;29;20492;-76
2021/03/03 15:37:22;;;;;;;56.88;26.45;;;;;;;;;;4917888;29;20047;-76
2021/03/03 15:39:48;;;;;;;67.45;30.92;;;;;;;;;;4915523;29;20108;-76
2021/03/03 15:42:15;;;;;;;67.47;29.45;;;;;;;;;;4915637;29;20552;-76
2021/03/03 15:44:41;;;;;;;67.28;30.48;;;;;;;;;;4918274;29;20041;-76
2021/03/03 15:47:08;;;;;;;66.85;30.13;;;;;;;;;;4917723;29;20043;-76
2021/03/03 15:49:34;;;;;;;63.92;29.30;;;;;;;;;;4917867;29;20043;-75
2021/03/03 15:52:00;;;;;;;64.57;30.05;;;;;;;;;;4917690;29;20058;-76
2021/03/03 15:54:27;;;;;;;69.15;30.08;;;;;;;;;;4917422;29;20099;-76
2021/03/03 15:56:53;;;;;;;62.08;29.30;;;;;;;;;;4917251;29;20044;-77
2021/03/03 15:59:20;;;;;;;68.68;29.45;;;;;;;;;;4917619;29;20056;-76
2021/03/03 16:01:46;;;;;;;65.40;29.25;;;;;;;;;;4917655;29;20139;-76
2021/03/03 16:04:12;;;;;;;70.95;30.88;;;;;;;;;;4918020;29;20048;-76
2021/03/03 16:06:38;;;;;;;69.95;30.50;;;;;;;;;;4918629;29;20055;-81
2021/03/03 16:09:06;;;;;;;61.80;27.92;;;;;;;;;;4917631;29;20040;-80
2021/03/03 16:11:32;;;;;;;59.90;26.45;;;;;;;;;;4917352;29;20123;-77
2021/03/03 16:13:58;;;;;;;62.95;26.85;;;;;;;;;;4918319;29;20051;-77
2021/03/03 16:16:26;;;;;;;57.38;27.38;;;;;;;;;;4917138;29;20076;-76
2021/03/03 16:18:52;;;;;;;57.08;25.23;;;;;;;;;;4918383;29;20063;-77
2021/03/03 16:21:19;;;;;;;60.08;25.58;;;;;;;;;;4916737;29;20047;-76
2021/03/03 16:23:45;;;;;;;55.97;25.77;;;;;;;;;;4918061;29;20044;-76
2021/03/03 16:26:11;;;;;;;53.10;25.17;;;;;;;;;;4917819;29;20052;-77
2021/03/03 16:28:38;;;;;;;60.17;26.00;;;;;;;;;;4917142;29;20054;-77
2021/03/03 16:31:04;;;;;;;58.47;26.33;;;;;;;;;;4917867;29;20131;-77
2021/03/03 16:33:30;;;;;;;58.42;24.88;;;;;;;;;;4912399;29;20128;-75
2021/03/03 16:35:57;;;;;;;65.35;27.60;;;;;;;;;;4916599;29;20146;-76
2021/03/03 16:38:28;;;;;;;53.00;26.08;;;;;;;;;;4917509;29;20119;-76
2021/03/03 16:40:54;;;;;;;56.22;25.73;;;;;;;;;;4918008;29;20122;-76
2021/03/03 16:43:21;;;;;;;56.83;26.50;;;;;;;;;;4904856;29;20056;-76
2021/03/03 16:45:48;;;;;;;59.33;26.35;;;;;;;;;;4915698;29;20495;-76
2021/03/03 16:48:14;;;;;;;65.43;27.75;;;;;;;;;;4912576;29;20056;-77
2021/03/03 16:50:41;;;;;;;62.33;27.73;;;;;;;;;;4915657;29;20063;-76
2021/03/03 16:53:07;;;;;;;68.10;29.70;;;;;;;;;;4912212;29;20436;-76
2021/03/03 16:55:35;;;;;;;70.60;30.13;;;;;;;;;;4908546;29;20055;-76
2021/03/03 16:58:01;;;;;;;72.28;28.88;;;;;;;;;;4915962;29;20055;-76
2021/03/03 17:00:28;;;;;;;62.13;27.85;;;;;;;;;;4916149;29;20052;-76
2021/03/03 17:02:54;;;;;;;63.45;28.05;;;;;;;;;;4914021;29;20107;-74
2021/03/03 17:05:21;;;;;;;73.13;27.98;;;;;;;;;;4897760;29;20123;-72
2021/03/03 17:07:47;;;;;;;65.20;28.73;;;;;;;;;;4915842;29;20116;-73
2021/03/03 17:10:14;;;;;;;70.38;28.85;;;;;;;;;;4915875;29;20433;-74
2021/03/03 17:12:42;;;;;;;71.15;30.48;;;;;;;;;;4913511;29;20048;-74
2021/03/03 17:15:09;;;;;;;82.03;29.50;;;;;;;;;;4916158;29;20047;-73
2021/03/03 17:17:41;;;;;;;84.85;31.25;;;;;;;;;;4915330;29;20330;-74
2021/03/03 17:20:08;;;;;;;74.75;31.02;;;;;;;;;;4909652;29;20304;-73
2021/03/03 17:22:35;;;;;;;79.68;31.27;;;;;;;;;;4915369;29;20348;-73
2021/03/03 17:25:01;;;;;;;78.07;30.52;;;;;;;;;;4913032;29;20115;-73
2021/03/03 17:27:28;;;;;;;72.40;30.02;;;;;;;;;;4914517;29;20119;-72
2021/03/03 17:29:54;;;;;;;63.95;28.33;;;;;;;;;;4915443;29;20120;-73
2021/03/03 17:32:20;;;;;;;71.38;29.20;;;;;;;;;;4912071;29;21611;-74